sensor_id;sensor_type;location;lat;lon;timestamp;P1;durP1;ratioP1;P2;durP2;ratioP2
30010;SDS011;16851;53.564;8.112;2023-02-28T00:03:16;9.87;;;4.53;;
30010;SDS011;16851;53.564;8.112;2023-02-28T00:08:46;8.37;;;4.70;;
30010;SDS011;16851;53.564;8.112;2023-02-28T00:14:09;11.50;;;5.33;;
30010;SDS011;16851;53.564;8.112;2023-02-28T00:19:35;11.70;;;5.57;;
30010;SDS011;16851;53.564;8.112;2023-02-28T00:24:57;12.53;;;5.73;;
30010;SDS011;16851;53.564;8.112;2023-02-28T00:30:22;12.57;;;5.50;;
30010;SDS011;16851;53.564;8.112;2023-02-28T00:35:49;14.40;;;6.03;;
30010;SDS011;16851;53.564;8.112;2023-02-28T00:41:15;9.73;;;6.17;;
30010;SDS011;16851;53.564;8.112;2023-02-28T00:46:37;12.23;;;6.77;;
30010;SDS011;16851;53.564;8.112;2023-02-28T00:51:59;15.57;;;6.73;;
30010;SDS011;16851;53.564;8.112;2023-02-28T00:57:22;9.60;;;6.97;;
30010;SDS011;16851;53.564;8.112;2023-02-28T01:02:44;12.57;;;8.10;;
30010;SDS011;16851;53.564;8.112;2023-02-28T01:08:08;10.10;;;6.83;;
30010;SDS011;16851;53.564;8.112;2023-02-28T01:13:33;12.67;;;7.27;;
30010;SDS011;16851;53.564;8.112;2023-02-28T01:19:00;10.90;;;7.40;;
30010;SDS011;16851;53.564;8.112;2023-02-28T01:24:22;11.60;;;7.53;;
30010;SDS011;16851;53.564;8.112;2023-02-28T01:29:44;11.13;;;7.53;;
30010;SDS011;16851;53.564;8.112;2023-02-28T01:35:06;13.03;;;8.50;;
30010;SDS011;16851;53.564;8.112;2023-02-28T01:40:31;14.47;;;7.40;;
30010;SDS011;16851;53.564;8.112;2023-02-28T01:46:01;15.60;;;8.70;;
30010;SDS011;16851;53.564;8.112;2023-02-28T01:57:01;12.90;;;8.30;;
30010;SDS011;16851;53.564;8.112;2023-02-28T02:02:28;11.97;;;8.60;;
30010;SDS011;16851;53.564;8.112;2023-02-28T02:07:52;15.37;;;9.00;;
30010;SDS011;16851;53.564;8.112;2023-02-28T02:18:48;17.17;;;10.30;;
30010;SDS011;16851;53.564;8.112;2023-02-28T02:35:49;17.17;;;9.33;;
30010;SDS011;16851;53.564;8.112;2023-02-28T02:47:14;19.23;;;10.27;;
30010;SDS011;16851;53.564;8.112;2023-02-28T02:52:39;17.53;;;10.13;;
30010;SDS011;16851;53.564;8.112;2023-02-28T02:58:04;18.90;;;10.20;;
30010;SDS011;16851;53.564;8.112;2023-02-28T03:03:32;19.00;;;11.73;;
30010;SDS011;16851;53.564;8.112;2023-02-28T03:08:55;16.67;;;10.17;;
30010;SDS011;16851;53.564;8.112;2023-02-28T03:19:55;18.17;;;12.27;;
30010;SDS011;16851;53.564;8.112;2023-02-28T03:26:02;18.10;;;11.80;;
30010;SDS011;16851;53.564;8.112;2023-02-28T03:31:39;19.87;;;12.33;;
30010;SDS011;16851;53.564;8.112;2023-02-28T03:37:09;21.93;;;12.70;;
30010;SDS011;16851;53.564;8.112;2023-02-28T03:42:35;20.90;;;12.90;;
30010;SDS011;16851;53.564;8.112;2023-02-28T03:53:39;25.07;;;13.23;;
30010;SDS011;16851;53.564;8.112;2023-02-28T04:04:28;23.43;;;14.83;;
30010;SDS011;16851;53.564;8.112;2023-02-28T04:09:52;19.60;;;12.77;;
30010;SDS011;16851;53.564;8.112;2023-02-28T04:15:15;24.03;;;14.17;;
30010;SDS011;16851;53.564;8.112;2023-02-28T04:20:37;17.10;;;12.93;;
30010;SDS011;16851;53.564;8.112;2023-02-28T04:25:59;25.40;;;15.53;;
30010;SDS011;16851;53.564;8.112;2023-02-28T04:31:24;22.43;;;15.00;;
30010;SDS011;16851;53.564;8.112;2023-02-28T04:36:49;29.23;;;16.97;;
30010;SDS011;16851;53.564;8.112;2023-02-28T04:42:30;27.27;;;17.50;;
30010;SDS011;16851;53.564;8.112;2023-02-28T04:47:57;29.10;;;17.27;;
30010;SDS011;16851;53.564;8.112;2023-02-28T04:53:19;25.97;;;18.10;;
30010;SDS011;16851;53.564;8.112;2023-02-28T04:58:44;22.13;;;15.43;;
30010;SDS011;16851;53.564;8.112;2023-02-28T05:04:06;45.63;;;28.10;;
30010;SDS011;16851;53.564;8.112;2023-02-28T05:09:28;37.57;;;22.97;;
30010;SDS011;16851;53.564;8.112;2023-02-28T05:14:50;42.50;;;25.87;;
30010;SDS011;16851;53.564;8.112;2023-02-28T05:20:15;48.93;;;30.07;;
30010;SDS011;16851;53.564;8.112;2023-02-28T05:25:37;43.40;;;28.87;;
30010;SDS011;16851;53.564;8.112;2023-02-28T05:30:59;45.17;;;29.10;;
30010;SDS011;16851;53.564;8.112;2023-02-28T05:36:21;42.40;;;27.37;;
30010;SDS011;16851;53.564;8.112;2023-02-28T05:41:44;32.23;;;22.40;;
30010;SDS011;16851;53.564;8.112;2023-02-28T05:47:06;41.23;;;25.07;;
30010;SDS011;16851;53.564;8.112;2023-02-28T05:52:30;36.37;;;21.90;;
30010;SDS011;16851;53.564;8.112;2023-02-28T05:57:53;33.23;;;20.50;;
30010;SDS011;16851;53.564;8.112;2023-02-28T06:03:15;29.70;;;18.70;;
30010;SDS011;16851;53.564;8.112;2023-02-28T06:08:40;30.57;;;18.90;;
30010;SDS011;16851;53.564;8.112;2023-02-28T06:14:06;38.57;;;22.17;;
30010;SDS011;16851;53.564;8.112;2023-02-28T06:19:28;45.25;;;26.02;;
30010;SDS011;16851;53.564;8.112;2023-02-28T06:24:53;38.07;;;23.27;;
30010;SDS011;16851;53.564;8.112;2023-02-28T06:30:21;38.97;;;23.20;;
30010;SDS011;16851;53.564;8.112;2023-02-28T06:35:47;44.93;;;25.03;;
30010;SDS011;16851;53.564;8.112;2023-02-28T06:41:12;35.77;;;20.50;;
30010;SDS011;16851;53.564;8.112;2023-02-28T06:46:34;22.13;;;15.83;;
30010;SDS011;16851;53.564;8.112;2023-02-28T06:51:56;32.77;;;19.80;;
30010;SDS011;16851;53.564;8.112;2023-02-28T06:57:18;26.10;;;17.83;;
30010;SDS011;16851;53.564;8.112;2023-02-28T07:02:41;46.73;;;23.73;;
30010;SDS011;16851;53.564;8.112;2023-02-28T07:08:03;39.60;;;23.20;;
30010;SDS011;16851;53.564;8.112;2023-02-28T07:13:25;38.60;;;21.70;;
30010;SDS011;16851;53.564;8.112;2023-02-28T07:18:54;36.73;;;22.10;;
30010;SDS011;16851;53.564;8.112;2023-02-28T07:24:16;34.30;;;20.00;;
30010;SDS011;16851;53.564;8.112;2023-02-28T07:29:39;33.33;;;19.03;;
30010;SDS011;16851;53.564;8.112;2023-02-28T07:35:01;47.73;;;25.40;;
30010;SDS011;16851;53.564;8.112;2023-02-28T07:40:23;36.87;;;22.30;;
30010;SDS011;16851;53.564;8.112;2023-02-28T07:45:45;42.73;;;25.87;;
30010;SDS011;16851;53.564;8.112;2023-02-28T07:51:10;41.60;;;26.00;;
30010;SDS011;16851;53.564;8.112;2023-02-28T07:56:34;44.67;;;26.63;;
30010;SDS011;16851;53.564;8.112;2023-02-28T08:02:01;35.43;;;23.07;;
30010;SDS011;16851;53.564;8.112;2023-02-28T08:07:23;36.37;;;22.60;;
30010;SDS011;16851;53.564;8.112;2023-02-28T08:12:48;58.30;;;29.67;;
30010;SDS011;16851;53.564;8.112;2023-02-28T08:18:10;28.53;;;19.83;;
30010;SDS011;16851;53.564;8.112;2023-02-28T08:23:36;28.40;;;19.50;;
30010;SDS011;16851;53.564;8.112;2023-02-28T08:28:58;25.30;;;17.53;;
30010;SDS011;16851;53.564;8.112;2023-02-28T08:34:23;25.30;;;15.43;;
30010;SDS011;16851;53.564;8.112;2023-02-28T08:39:45;19.40;;;12.90;;
30010;SDS011;16851;53.564;8.112;2023-02-28T08:45:09;17.87;;;11.57;;
30010;SDS011;16851;53.564;8.112;2023-02-28T08:50:34;13.67;;;10.13;;
30010;SDS011;16851;53.564;8.112;2023-02-28T08:56:10;15.53;;;9.43;;
30010;SDS011;16851;53.564;8.112;2023-02-28T09:01:42;13.27;;;8.60;;
30010;SDS011;16851;53.564;8.112;2023-02-28T09:07:07;13.20;;;8.83;;
30010;SDS011;16851;53.564;8.112;2023-02-28T09:12:32;18.67;;;8.93;;
30010;SDS011;16851;53.564;8.112;2023-02-28T09:17:55;14.40;;;8.10;;
30010;SDS011;16851;53.564;8.112;2023-02-28T09:23:18;15.67;;;8.40;;
30010;SDS011;16851;53.564;8.112;2023-02-28T09:28:40;17.50;;;8.20;;
30010;SDS011;16851;53.564;8.112;2023-02-28T09:34:07;14.23;;;7.60;;
30010;SDS011;16851;53.564;8.112;2023-02-28T09:39:32;13.27;;;7.10;;
30010;SDS011;16851;53.564;8.112;2023-02-28T09:44:54;11.93;;;7.17;;
30010;SDS011;16851;53.564;8.112;2023-02-28T09:55:50;16.47;;;6.43;;
30010;SDS011;16851;53.564;8.112;2023-02-28T10:07:55;15.50;;;8.20;;
30010;SDS011;16851;53.564;8.112;2023-02-28T10:12:59;17.13;;;9.60;;
30010;SDS011;16851;53.564;8.112;2023-02-28T10:18:24;16.43;;;8.63;;
30010;SDS011;16851;53.564;8.112;2023-02-28T10:23:51;11.63;;;7.43;;
30010;SDS011;16851;53.564;8.112;2023-02-28T10:29:15;17.07;;;7.20;;
30010;SDS011;16851;53.564;8.112;2023-02-28T10:34:37;12.30;;;7.70;;
30010;SDS011;16851;53.564;8.112;2023-02-28T10:45:23;10.60;;;4.77;;
30010;SDS011;16851;53.564;8.112;2023-02-28T11:01:35;12.53;;;6.50;;
30010;SDS011;16851;53.564;8.112;2023-02-28T11:12:43;10.37;;;5.87;;
30010;SDS011;16851;53.564;8.112;2023-02-28T11:18:30;14.30;;;6.03;;
30010;SDS011;16851;53.564;8.112;2023-02-28T11:24:02;11.27;;;5.33;;
30010;SDS011;16851;53.564;8.112;2023-02-28T11:35:13;10.37;;;5.60;;
30010;SDS011;16851;53.564;8.112;2023-02-28T11:41:05;11.27;;;4.70;;
30010;SDS011;16851;53.564;8.112;2023-02-28T12:26:36;8.15;;;3.08;;
30010;SDS011;16851;53.564;8.112;2023-02-28T12:32:11;3.75;;;1.60;;
30010;SDS011;16851;53.564;8.112;2023-02-28T12:37:38;4.03;;;1.67;;
30010;SDS011;16851;53.564;8.112;2023-02-28T12:43:21;3.90;;;1.90;;
30010;SDS011;16851;53.564;8.112;2023-02-28T12:48:46;4.95;;;2.28;;
30010;SDS011;16851;53.564;8.112;2023-02-28T12:54:12;6.75;;;3.97;;
30010;SDS011;16851;53.564;8.112;2023-02-28T12:59:52;4.18;;;2.60;;
30010;SDS011;16851;53.564;8.112;2023-02-28T13:05:19;5.47;;;2.72;;
30010;SDS011;16851;53.564;8.112;2023-02-28T13:10:49;6.43;;;2.10;;
30010;SDS011;16851;53.564;8.112;2023-02-28T13:16:17;6.45;;;2.90;;
30010;SDS011;16851;53.564;8.112;2023-02-28T13:21:44;4.80;;;2.58;;
30010;SDS011;16851;53.564;8.112;2023-02-28T13:32:32;6.43;;;3.58;;
30010;SDS011;16851;53.564;8.112;2023-02-28T13:38:02;7.93;;;3.90;;
30010;SDS011;16851;53.564;8.112;2023-02-28T14:06:08;10.88;;;4.53;;
30010;SDS011;16851;53.564;8.112;2023-02-28T14:11:54;10.68;;;4.70;;
30010;SDS011;16851;53.564;8.112;2023-02-28T14:17:18;8.45;;;4.90;;
30010;SDS011;16851;53.564;8.112;2023-02-28T14:22:49;10.98;;;5.53;;
30010;SDS011;16851;53.564;8.112;2023-02-28T14:28:35;12.18;;;5.28;;
30010;SDS011;16851;53.564;8.112;2023-02-28T14:39:40;9.30;;;5.18;;
30010;SDS011;16851;53.564;8.112;2023-02-28T14:45:05;10.02;;;5.93;;
30010;SDS011;16851;53.564;8.112;2023-02-28T14:50:32;19.35;;;6.72;;
30010;SDS011;16851;53.564;8.112;2023-02-28T14:55:56;9.15;;;4.63;;
30010;SDS011;16851;53.564;8.112;2023-02-28T15:01:19;8.80;;;5.30;;
30010;SDS011;16851;53.564;8.112;2023-02-28T15:06:43;8.52;;;4.60;;
30010;SDS011;16851;53.564;8.112;2023-02-28T15:12:15;6.50;;;3.97;;
30010;SDS011;16851;53.564;8.112;2023-02-28T15:17:39;9.20;;;4.60;;
30010;SDS011;16851;53.564;8.112;2023-02-28T15:23:04;7.20;;;4.88;;
30010;SDS011;16851;53.564;8.112;2023-02-28T15:28:28;9.57;;;4.72;;
30010;SDS011;16851;53.564;8.112;2023-02-28T15:33:55;12.32;;;4.93;;
30010;SDS011;16851;53.564;8.112;2023-02-28T15:39:26;8.95;;;4.85;;
30010;SDS011;16851;53.564;8.112;2023-02-28T15:44:49;9.90;;;5.57;;
30010;SDS011;16851;53.564;8.112;2023-02-28T15:50:13;11.05;;;5.70;;
30010;SDS011;16851;53.564;8.112;2023-02-28T15:55:35;11.65;;;5.93;;
30010;SDS011;16851;53.564;8.112;2023-02-28T16:01:06;10.43;;;6.60;;
30010;SDS011;16851;53.564;8.112;2023-02-28T16:12:03;9.90;;;5.80;;
30010;SDS011;16851;53.564;8.112;2023-02-28T16:17:28;14.00;;;6.23;;
30010;SDS011;16851;53.564;8.112;2023-02-28T16:22:55;13.80;;;5.83;;
30010;SDS011;16851;53.564;8.112;2023-02-28T16:28:36;14.80;;;6.53;;
30010;SDS011;16851;53.564;8.112;2023-02-28T16:33:59;10.50;;;6.20;;
30010;SDS011;16851;53.564;8.112;2023-02-28T16:39:21;10.37;;;5.73;;
30010;SDS011;16851;53.564;8.112;2023-02-28T16:44:51;11.43;;;5.67;;
30010;SDS011;16851;53.564;8.112;2023-02-28T16:50:15;9.87;;;5.80;;
30010;SDS011;16851;53.564;8.112;2023-02-28T16:55:39;9.50;;;5.70;;
30010;SDS011;16851;53.564;8.112;2023-02-28T17:01:02;10.43;;;5.97;;
30010;SDS011;16851;53.564;8.112;2023-02-28T17:06:28;10.57;;;6.27;;
30010;SDS011;16851;53.564;8.112;2023-02-28T17:11:53;11.70;;;6.20;;
30010;SDS011;16851;53.564;8.112;2023-02-28T17:17:20;10.48;;;6.07;;
30010;SDS011;16851;53.564;8.112;2023-02-28T17:22:43;11.23;;;6.13;;
30010;SDS011;16851;53.564;8.112;2023-02-28T17:28:08;12.23;;;6.23;;
30010;SDS011;16851;53.564;8.112;2023-02-28T17:33:32;8.60;;;5.87;;
30010;SDS011;16851;53.564;8.112;2023-02-28T17:38:58;9.23;;;6.27;;
30010;SDS011;16851;53.564;8.112;2023-02-28T17:44:20;12.07;;;7.17;;
30010;SDS011;16851;53.564;8.112;2023-02-28T17:49:45;11.80;;;6.47;;
30010;SDS011;16851;53.564;8.112;2023-02-28T17:55:10;11.27;;;6.67;;
30010;SDS011;16851;53.564;8.112;2023-02-28T18:00:15;10.40;;;7.37;;
30010;SDS011;16851;53.564;8.112;2023-02-28T18:05:18;13.07;;;7.63;;
30010;SDS011;16851;53.564;8.112;2023-02-28T18:10:20;12.90;;;7.67;;
30010;SDS011;16851;53.564;8.112;2023-02-28T18:15:27;11.30;;;7.07;;
30010;SDS011;16851;53.564;8.112;2023-02-28T18:20:33;15.90;;;7.83;;
30010;SDS011;16851;53.564;8.112;2023-02-28T18:25:35;12.30;;;8.20;;
30010;SDS011;16851;53.564;8.112;2023-02-28T18:30:39;14.40;;;8.50;;
30010;SDS011;16851;53.564;8.112;2023-02-28T18:35:43;10.70;;;7.77;;
30010;SDS011;16851;53.564;8.112;2023-02-28T18:40:52;14.47;;;9.00;;
30010;SDS011;16851;53.564;8.112;2023-02-28T18:46:04;12.27;;;8.50;;
30010;SDS011;16851;53.564;8.112;2023-02-28T18:51:11;13.57;;;8.13;;
30010;SDS011;16851;53.564;8.112;2023-02-28T18:56:19;11.70;;;7.63;;
30010;SDS011;16851;53.564;8.112;2023-02-28T19:01:27;11.83;;;8.40;;
30010;SDS011;16851;53.564;8.112;2023-02-28T19:06:38;11.70;;;8.60;;
30010;SDS011;16851;53.564;8.112;2023-02-28T19:11:40;13.80;;;8.43;;
30010;SDS011;16851;53.564;8.112;2023-02-28T19:16:44;14.33;;;7.57;;
30010;SDS011;16851;53.564;8.112;2023-02-28T19:21:47;13.30;;;9.03;;
30010;SDS011;16851;53.564;8.112;2023-02-28T19:26:51;13.50;;;9.80;;
30010;SDS011;16851;53.564;8.112;2023-02-28T19:31:53;15.47;;;8.90;;
30010;SDS011;16851;53.564;8.112;2023-02-28T19:36:55;16.20;;;9.63;;
30010;SDS011;16851;53.564;8.112;2023-02-28T19:42:00;17.93;;;9.63;;
30010;SDS011;16851;53.564;8.112;2023-02-28T19:47:02;13.43;;;9.70;;
30010;SDS011;16851;53.564;8.112;2023-02-28T19:52:07;14.80;;;10.10;;
30010;SDS011;16851;53.564;8.112;2023-02-28T19:57:15;14.87;;;9.40;;
30010;SDS011;16851;53.564;8.112;2023-02-28T20:02:20;18.20;;;9.60;;
30010;SDS011;16851;53.564;8.112;2023-02-28T20:07:26;16.67;;;10.30;;
30010;SDS011;16851;53.564;8.112;2023-02-28T20:12:32;15.07;;;10.07;;
30010;SDS011;16851;53.564;8.112;2023-02-28T20:17:36;15.87;;;10.00;;
30010;SDS011;16851;53.564;8.112;2023-02-28T20:22:38;18.97;;;10.57;;
30010;SDS011;16851;53.564;8.112;2023-02-28T20:27:45;21.57;;;12.50;;
30010;SDS011;16851;53.564;8.112;2023-02-28T20:32:47;24.80;;;12.67;;
30010;SDS011;16851;53.564;8.112;2023-02-28T20:37:49;17.60;;;11.50;;
30010;SDS011;16851;53.564;8.112;2023-02-28T20:42:51;17.93;;;11.87;;
30010;SDS011;16851;53.564;8.112;2023-02-28T20:47:55;20.13;;;11.97;;
30010;SDS011;16851;53.564;8.112;2023-02-28T20:53:03;19.60;;;12.00;;
30010;SDS011;16851;53.564;8.112;2023-02-28T20:58:05;21.63;;;13.80;;
30010;SDS011;16851;53.564;8.112;2023-02-28T21:03:09;23.30;;;13.93;;
30010;SDS011;16851;53.564;8.112;2023-02-28T21:08:11;20.47;;;13.03;;
30010;SDS011;16851;53.564;8.112;2023-02-28T21:13:18;19.83;;;12.13;;
30010;SDS011;16851;53.564;8.112;2023-02-28T21:18:24;21.57;;;13.03;;
30010;SDS011;16851;53.564;8.112;2023-02-28T21:23:29;21.37;;;13.67;;
30010;SDS011;16851;53.564;8.112;2023-02-28T21:28:31;21.90;;;13.90;;
30010;SDS011;16851;53.564;8.112;2023-02-28T21:33:36;23.50;;;14.80;;
30010;SDS011;16851;53.564;8.112;2023-02-28T21:38:40;22.70;;;14.37;;
30010;SDS011;16851;53.564;8.112;2023-02-28T21:43:43;23.03;;;13.27;;
30010;SDS011;16851;53.564;8.112;2023-02-28T21:48:48;19.30;;;12.73;;
30010;SDS011;16851;53.564;8.112;2023-02-28T21:53:52;18.87;;;12.43;;
30010;SDS011;16851;53.564;8.112;2023-02-28T21:58:55;24.10;;;13.23;;
30010;SDS011;16851;53.564;8.112;2023-02-28T22:04:06;18.73;;;12.30;;
30010;SDS011;16851;53.564;8.112;2023-02-28T22:09:09;21.50;;;12.73;;
30010;SDS011;16851;53.564;8.112;2023-02-28T22:14:10;19.93;;;13.33;;
30010;SDS011;16851;53.564;8.112;2023-02-28T22:19:13;22.67;;;14.37;;
30010;SDS011;16851;53.564;8.112;2023-02-28T22:24:15;25.83;;;16.07;;
30010;SDS011;16851;53.564;8.112;2023-02-28T22:29:20;23.77;;;15.43;;
30010;SDS011;16851;53.564;8.112;2023-02-28T22:34:21;28.50;;;18.10;;
30010;SDS011;16851;53.564;8.112;2023-02-28T22:39:28;23.50;;;15.00;;
30010;SDS011;16851;53.564;8.112;2023-02-28T22:44:30;26.83;;;16.57;;
30010;SDS011;16851;53.564;8.112;2023-02-28T22:49:32;25.47;;;16.20;;
30010;SDS011;16851;53.564;8.112;2023-02-28T22:54:34;26.33;;;15.13;;
30010;SDS011;16851;53.564;8.112;2023-02-28T22:59:38;24.57;;;14.80;;
30010;SDS011;16851;53.564;8.112;2023-02-28T23:04:40;24.63;;;16.13;;
30010;SDS011;16851;53.564;8.112;2023-02-28T23:09:41;27.17;;;17.33;;
30010;SDS011;16851;53.564;8.112;2023-02-28T23:14:43;23.63;;;15.73;;
30010;SDS011;16851;53.564;8.112;2023-02-28T23:19:47;26.17;;;16.80;;
30010;SDS011;16851;53.564;8.112;2023-02-28T23:24:49;30.97;;;19.87;;
30010;SDS011;16851;53.564;8.112;2023-02-28T23:29:50;30.10;;;18.30;;
30010;SDS011;16851;53.564;8.112;2023-02-28T23:34:52;41.67;;;23.43;;
30010;SDS011;16851;53.564;8.112;2023-02-28T23:39:55;44.97;;;24.47;;
30010;SDS011;16851;53.564;8.112;2023-02-28T23:44:57;42.80;;;25.40;;
30010;SDS011;16851;53.564;8.112;2023-02-28T23:49:59;44.33;;;24.57;;
30010;SDS011;16851;53.564;8.112;2023-02-28T23:55:00;43.20;;;24.27;;
